K1YT

Yagabond Aaf

Yagabond Aaf, Washington, USA
METAR K1YT 221858Z AUTO 26007KT 10SM M 28/06 A3019 RMK AO2 SLPNO T02790058 $
Observed Flight Rules
Jul-22 @ 18:58 UTC (an hour ago)
Wind Visibility
260° at 7 knots 10 miles
Temperatures Readings
Current 28°C / 82°F
Dewpoint 6°C / 43°F
Humidity 25%
Altimeter 30.19" Hg
Pressure 1022 hPa
Elevation 438
METAR K1YT 221858Z AUTO 26007KT 10SM M 28/06 A3019 RMK AO2 SLPNO T02790058 $
Observed Flight Rules
Jul-22 @ 18:58 UTC
(an hour ago)
Wind Visibility
260° at 7 knots 10 miles
Temperature Dewpoint
28°C / 82°F 6°C / 43°F
Humidity Altimeter Pressure
25% 30.19" Hg 1022 hPa